Hauptseite
METAR-TAF:

METAR-TAF

Flughäfen :

Flughafen Tunis

Tunis, Tunesien

Breite: 36-50N, Länge: 010-14E, Höhe: 3 m

Beobachtung

Neuester Wetterbericht von vor 25 Minuten, um 05:00 UTC
Wind 14 kt aus Ost/Südost
Temperatur 16°C
Luftfeuchtigkeit 77%
Luftdruck 1019 hPa
Sichtweite 10 km oder mehr
keine Wolken unter 1500 m und keine Kumulonimbus oder Gewitterwolken

METAR: DTTA 190500Z 11014KT CAVOK 16/12 Q1019

Zeit: 06:25 (05:25 UTC)

Prognose

Neuester Wetterbericht von vor 6 Stunden und 25 Minuten, um 23:00 UTC
Gültige Prognose vom 19 um 00 UTC bis 19 um 24 UTC
Wind 15 kt aus Ost/Südost
Sichtweite 10 km oder mehr
Aufgelockert bewölkt in der Höhe von 2600 ft
Zeitweise
vom 19 um 10 UTC bis 19 um 24 UTC
Wind 22 kt aus Südost, Böen bis zu 32 kt

TAF: DTTA 182300Z 1900/1924 12015KT 9999 SCT026 TEMPO 1910/1924 13022G32KT

Wetterbeobachtungen und Prognosen von mehr als 4000 Flughäfen (METAR und TAF Bericht).

Die verfügbaren Stationen werden durch gelbe und rote Markierungen auf der Karte dargestellt.

Führen Sie die Maus auf sie, um den Namen der Station zu sehen.

Darauf klicken, um die Beobachtung von Wetterbeobachtungen und Prognosen zu sehen.

Um die Karte zu ändern : klicken Sie auf den grünen Tasten mit einem schwarzen Kreuz Zum Vergrößern, auf den grünen Button mit einem Gedankenstrich zu verkleinern, oder auf die grünen Pfeile für benachbarte Karten.


METAR-TAF: